sensor_id;sensor_type;location;lat;lon;timestamp;P1;durP1;ratioP1;P2;durP2;ratioP2
23119;SDS011;11729;50.836;4.330;2022-10-26T00:00:47;8.40;;;6.20;;
23119;SDS011;11729;50.836;4.330;2022-10-26T00:03:13;7.73;;;6.03;;
23119;SDS011;11729;50.836;4.330;2022-10-26T00:05:39;11.75;;;6.43;;
23119;SDS011;11729;50.836;4.330;2022-10-26T00:08:05;10.35;;;6.32;;
23119;SDS011;11729;50.836;4.330;2022-10-26T00:10:35;9.98;;;6.13;;
23119;SDS011;11729;50.836;4.330;2022-10-26T00:13:02;7.18;;;5.90;;
23119;SDS011;11729;50.836;4.330;2022-10-26T00:15:29;9.32;;;6.00;;
23119;SDS011;11729;50.836;4.330;2022-10-26T00:17:55;9.90;;;5.70;;
23119;SDS011;11729;50.836;4.330;2022-10-26T00:20:21;13.38;;;6.30;;
23119;SDS011;11729;50.836;4.330;2022-10-26T00:22:47;7.00;;;5.43;;
23119;SDS011;11729;50.836;4.330;2022-10-26T00:25:13;8.25;;;5.63;;
23119;SDS011;11729;50.836;4.330;2022-10-26T00:27:38;10.23;;;5.47;;
23119;SDS011;11729;50.836;4.330;2022-10-26T00:30:04;8.40;;;5.40;;
23119;SDS011;11729;50.836;4.330;2022-10-26T00:32:31;12.15;;;5.30;;
23119;SDS011;11729;50.836;4.330;2022-10-26T00:34:57;8.35;;;5.65;;
23119;SDS011;11729;50.836;4.330;2022-10-26T00:37:22;9.38;;;5.78;;
23119;SDS011;11729;50.836;4.330;2022-10-26T00:39:48;14.18;;;6.00;;
23119;SDS011;11729;50.836;4.330;2022-10-26T00:42:15;8.10;;;5.43;;
23119;SDS011;11729;50.836;4.330;2022-10-26T00:47:21;7.28;;;5.65;;
23119;SDS011;11729;50.836;4.330;2022-10-26T00:49:53;8.55;;;5.80;;
23119;SDS011;11729;50.836;4.330;2022-10-26T00:52:21;9.55;;;6.00;;
23119;SDS011;11729;50.836;4.330;2022-10-26T00:54:48;12.43;;;6.00;;
23119;SDS011;11729;50.836;4.330;2022-10-26T00:57:14;9.95;;;5.30;;
23119;SDS011;11729;50.836;4.330;2022-10-26T00:59:42;7.75;;;5.50;;
23119;SDS011;11729;50.836;4.330;2022-10-26T01:02:09;6.47;;;5.70;;
23119;SDS011;11729;50.836;4.330;2022-10-26T01:04:35;9.65;;;5.60;;
23119;SDS011;11729;50.836;4.330;2022-10-26T01:07:02;8.73;;;5.95;;
23119;SDS011;11729;50.836;4.330;2022-10-26T01:09:29;7.20;;;5.60;;
23119;SDS011;11729;50.836;4.330;2022-10-26T01:11:55;8.15;;;5.93;;
23119;SDS011;11729;50.836;4.330;2022-10-26T01:14:21;8.45;;;5.57;;
23119;SDS011;11729;50.836;4.330;2022-10-26T01:19:28;11.32;;;6.15;;
23119;SDS011;11729;50.836;4.330;2022-10-26T01:27:37;7.68;;;5.20;;
23119;SDS011;11729;50.836;4.330;2022-10-26T01:38:09;8.05;;;5.30;;
23119;SDS011;11729;50.836;4.330;2022-10-26T01:40:43;9.70;;;5.20;;
23119;SDS011;11729;50.836;4.330;2022-10-26T01:43:14;5.45;;;4.97;;
23119;SDS011;11729;50.836;4.330;2022-10-26T01:48:11;9.63;;;5.57;;
23119;SDS011;11729;50.836;4.330;2022-10-26T01:50:40;9.60;;;5.35;;
23119;SDS011;11729;50.836;4.330;2022-10-26T01:53:13;5.65;;;5.10;;
23119;SDS011;11729;50.836;4.330;2022-10-26T01:55:42;13.20;;;5.85;;
23119;SDS011;11729;50.836;4.330;2022-10-26T02:01:15;9.70;;;5.30;;
23119;SDS011;11729;50.836;4.330;2022-10-26T02:04:09;5.50;;;5.00;;
23119;SDS011;11729;50.836;4.330;2022-10-26T02:10:07;7.43;;;5.22;;
23119;SDS011;11729;50.836;4.330;2022-10-26T02:18:03;5.57;;;4.90;;
23119;SDS011;11729;50.836;4.330;2022-10-26T02:20:31;7.57;;;5.30;;
23119;SDS011;11729;50.836;4.330;2022-10-26T02:23:00;7.32;;;5.15;;
23119;SDS011;11729;50.836;4.330;2022-10-26T02:25:30;5.68;;;5.07;;
23119;SDS011;11729;50.836;4.330;2022-10-26T02:27:59;7.22;;;5.20;;
23119;SDS011;11729;50.836;4.330;2022-10-26T02:30:31;8.27;;;5.22;;
23119;SDS011;11729;50.836;4.330;2022-10-26T02:32:59;12.05;;;5.47;;
23119;SDS011;11729;50.836;4.330;2022-10-26T02:35:30;5.93;;;5.32;;
23119;SDS011;11729;50.836;4.330;2022-10-26T02:38:00;6.68;;;5.10;;
23119;SDS011;11729;50.836;4.330;2022-10-26T02:40:30;5.82;;;5.22;;
23119;SDS011;11729;50.836;4.330;2022-10-26T02:42:58;8.20;;;5.63;;
23119;SDS011;11729;50.836;4.330;2022-10-26T02:45:30;11.43;;;4.97;;
23119;SDS011;11729;50.836;4.330;2022-10-26T02:48:00;6.88;;;5.15;;
23119;SDS011;11729;50.836;4.330;2022-10-26T02:50:28;9.60;;;5.20;;
23119;SDS011;11729;50.836;4.330;2022-10-26T02:53:09;6.63;;;5.00;;
23119;SDS011;11729;50.836;4.330;2022-10-26T02:55:43;5.57;;;5.07;;
23119;SDS011;11729;50.836;4.330;2022-10-26T02:58:23;8.35;;;5.15;;
23119;SDS011;11729;50.836;4.330;2022-10-26T03:00:52;9.43;;;5.47;;
23119;SDS011;11729;50.836;4.330;2022-10-26T03:03:18;7.10;;;5.22;;
23119;SDS011;11729;50.836;4.330;2022-10-26T03:05:46;7.30;;;5.00;;
23119;SDS011;11729;50.836;4.330;2022-10-26T03:08:11;8.13;;;5.43;;
23119;SDS011;11729;50.836;4.330;2022-10-26T03:10:42;7.38;;;5.47;;
23119;SDS011;11729;50.836;4.330;2022-10-26T03:13:09;5.65;;;5.00;;
23119;SDS011;11729;50.836;4.330;2022-10-26T03:15:36;7.53;;;5.45;;
23119;SDS011;11729;50.836;4.330;2022-10-26T03:18:02;9.20;;;5.43;;
23119;SDS011;11729;50.836;4.330;2022-10-26T03:20:28;7.95;;;5.45;;
23119;SDS011;11729;50.836;4.330;2022-10-26T03:22:54;5.55;;;4.97;;
23119;SDS011;11729;50.836;4.330;2022-10-26T03:25:21;6.35;;;5.00;;
23119;SDS011;11729;50.836;4.330;2022-10-26T03:27:57;10.48;;;5.38;;
23119;SDS011;11729;50.836;4.330;2022-10-26T03:30:24;8.33;;;5.23;;
23119;SDS011;11729;50.836;4.330;2022-10-26T03:32:51;7.47;;;5.00;;
23119;SDS011;11729;50.836;4.330;2022-10-26T03:35:16;5.20;;;4.70;;
23119;SDS011;11729;50.836;4.330;2022-10-26T03:37:43;7.60;;;5.20;;
23119;SDS011;11729;50.836;4.330;2022-10-26T03:40:09;9.98;;;5.03;;
23119;SDS011;11729;50.836;4.330;2022-10-26T03:42:36;9.95;;;5.20;;
23119;SDS011;11729;50.836;4.330;2022-10-26T03:45:02;5.57;;;5.07;;
23119;SDS011;11729;50.836;4.330;2022-10-26T03:47:28;6.60;;;4.97;;
23119;SDS011;11729;50.836;4.330;2022-10-26T03:49:54;6.53;;;5.38;;
23119;SDS011;11729;50.836;4.330;2022-10-26T03:52:20;9.35;;;5.30;;
23119;SDS011;11729;50.836;4.330;2022-10-26T03:54:45;11.68;;;5.88;;
23119;SDS011;11729;50.836;4.330;2022-10-26T03:57:11;8.57;;;5.55;;
23119;SDS011;11729;50.836;4.330;2022-10-26T03:59:36;7.13;;;5.30;;
23119;SDS011;11729;50.836;4.330;2022-10-26T04:02:02;6.38;;;5.25;;
23119;SDS011;11729;50.836;4.330;2022-10-26T04:04:27;7.10;;;5.53;;
23119;SDS011;11729;50.836;4.330;2022-10-26T04:06:53;12.23;;;5.97;;
23119;SDS011;11729;50.836;4.330;2022-10-26T04:09:19;6.18;;;5.65;;
23119;SDS011;11729;50.836;4.330;2022-10-26T04:11:44;8.70;;;5.78;;
23119;SDS011;11729;50.836;4.330;2022-10-26T04:14:10;11.70;;;5.72;;
23119;SDS011;11729;50.836;4.330;2022-10-26T04:16:35;6.47;;;5.60;;
23119;SDS011;11729;50.836;4.330;2022-10-26T04:19:01;9.85;;;5.70;;
23119;SDS011;11729;50.836;4.330;2022-10-26T04:21:27;8.48;;;6.20;;
23119;SDS011;11729;50.836;4.330;2022-10-26T04:23:53;9.98;;;6.05;;
23119;SDS011;11729;50.836;4.330;2022-10-26T04:26:19;7.35;;;5.60;;
23119;SDS011;11729;50.836;4.330;2022-10-26T04:28:44;8.38;;;6.15;;
23119;SDS011;11729;50.836;4.330;2022-10-26T04:31:10;8.82;;;5.50;;
23119;SDS011;11729;50.836;4.330;2022-10-26T04:33:35;9.02;;;5.45;;
23119;SDS011;11729;50.836;4.330;2022-10-26T04:36:01;8.55;;;5.60;;
23119;SDS011;11729;50.836;4.330;2022-10-26T04:38:27;10.98;;;5.68;;
23119;SDS011;11729;50.836;4.330;2022-10-26T04:40:53;6.45;;;5.35;;
23119;SDS011;11729;50.836;4.330;2022-10-26T04:43:19;6.97;;;5.38;;
23119;SDS011;11729;50.836;4.330;2022-10-26T04:45:45;8.52;;;5.18;;
23119;SDS011;11729;50.836;4.330;2022-10-26T04:48:11;6.18;;;5.45;;
23119;SDS011;11729;50.836;4.330;2022-10-26T04:50:38;8.57;;;5.85;;
23119;SDS011;11729;50.836;4.330;2022-10-26T04:53:04;9.13;;;6.10;;
23119;SDS011;11729;50.836;4.330;2022-10-26T04:55:31;13.73;;;5.95;;
23119;SDS011;11729;50.836;4.330;2022-10-26T04:57:57;11.07;;;6.13;;
23119;SDS011;11729;50.836;4.330;2022-10-26T05:00:23;9.13;;;6.35;;
23119;SDS011;11729;50.836;4.330;2022-10-26T05:02:48;7.65;;;6.18;;
23119;SDS011;11729;50.836;4.330;2022-10-26T05:05:14;11.73;;;6.15;;
23119;SDS011;11729;50.836;4.330;2022-10-26T05:07:40;8.73;;;6.55;;
23119;SDS011;11729;50.836;4.330;2022-10-26T05:10:05;12.32;;;6.72;;
23119;SDS011;11729;50.836;4.330;2022-10-26T05:12:32;9.10;;;6.93;;
23119;SDS011;11729;50.836;4.330;2022-10-26T05:14:57;11.98;;;6.35;;
23119;SDS011;11729;50.836;4.330;2022-10-26T05:17:24;11.40;;;6.45;;
23119;SDS011;11729;50.836;4.330;2022-10-26T05:19:51;11.45;;;6.70;;
23119;SDS011;11729;50.836;4.330;2022-10-26T05:22:21;9.90;;;6.85;;
23119;SDS011;11729;50.836;4.330;2022-10-26T05:24:47;8.57;;;6.57;;
23119;SDS011;11729;50.836;4.330;2022-10-26T05:27:13;16.85;;;6.63;;
23119;SDS011;11729;50.836;4.330;2022-10-26T05:29:39;10.40;;;6.32;;
23119;SDS011;11729;50.836;4.330;2022-10-26T05:32:04;14.65;;;6.43;;
23119;SDS011;11729;50.836;4.330;2022-10-26T05:34:30;9.23;;;6.63;;
23119;SDS011;11729;50.836;4.330;2022-10-26T05:36:55;9.48;;;6.60;;
23119;SDS011;11729;50.836;4.330;2022-10-26T05:39:22;9.38;;;5.85;;
23119;SDS011;11729;50.836;4.330;2022-10-26T05:41:47;12.80;;;5.95;;
23119;SDS011;11729;50.836;4.330;2022-10-26T05:44:13;7.68;;;6.45;;
23119;SDS011;11729;50.836;4.330;2022-10-26T05:46:38;11.65;;;6.07;;
23119;SDS011;11729;50.836;4.330;2022-10-26T05:49:04;11.65;;;6.15;;
23119;SDS011;11729;50.836;4.330;2022-10-26T05:51:31;11.95;;;6.47;;
23119;SDS011;11729;50.836;4.330;2022-10-26T05:56:36;10.38;;;5.95;;
23119;SDS011;11729;50.836;4.330;2022-10-26T05:59:12;9.77;;;6.35;;
23119;SDS011;11729;50.836;4.330;2022-10-26T06:04:42;8.77;;;6.25;;
23119;SDS011;11729;50.836;4.330;2022-10-26T06:07:18;10.00;;;6.38;;
23119;SDS011;11729;50.836;4.330;2022-10-26T06:09:45;13.07;;;6.50;;
23119;SDS011;11729;50.836;4.330;2022-10-26T06:12:12;16.10;;;6.90;;
23119;SDS011;11729;50.836;4.330;2022-10-26T06:14:39;12.75;;;6.25;;
23119;SDS011;11729;50.836;4.330;2022-10-26T06:19:50;10.13;;;6.65;;
23119;SDS011;11729;50.836;4.330;2022-10-26T06:22:38;10.85;;;8.13;;
23119;SDS011;11729;50.836;4.330;2022-10-26T06:30:59;14.20;;;6.80;;
23119;SDS011;11729;50.836;4.330;2022-10-26T06:33:25;12.00;;;6.53;;
23119;SDS011;11729;50.836;4.330;2022-10-26T06:35:59;9.60;;;6.65;;
23119;SDS011;11729;50.836;4.330;2022-10-26T06:38:27;11.98;;;6.90;;
23119;SDS011;11729;50.836;4.330;2022-10-26T06:40:55;10.63;;;6.43;;
23119;SDS011;11729;50.836;4.330;2022-10-26T06:43:26;14.20;;;6.97;;
23119;SDS011;11729;50.836;4.330;2022-10-26T06:46:00;8.88;;;6.72;;
23119;SDS011;11729;50.836;4.330;2022-10-26T06:48:37;12.57;;;6.45;;
23119;SDS011;11729;50.836;4.330;2022-10-26T06:51:11;9.98;;;6.57;;
23119;SDS011;11729;50.836;4.330;2022-10-26T06:53:45;10.57;;;6.97;;
23119;SDS011;11729;50.836;4.330;2022-10-26T06:56:27;9.40;;;6.55;;
23119;SDS011;11729;50.836;4.330;2022-10-26T06:58:53;9.52;;;7.15;;
23119;SDS011;11729;50.836;4.330;2022-10-26T07:01:24;11.27;;;6.72;;
23119;SDS011;11729;50.836;4.330;2022-10-26T07:03:50;13.43;;;6.95;;
23119;SDS011;11729;50.836;4.330;2022-10-26T07:06:15;7.47;;;6.65;;
23119;SDS011;11729;50.836;4.330;2022-10-26T07:08:41;11.30;;;7.22;;
23119;SDS011;11729;50.836;4.330;2022-10-26T07:11:06;13.98;;;10.27;;
23119;SDS011;11729;50.836;4.330;2022-10-26T07:13:33;10.38;;;7.35;;
23119;SDS011;11729;50.836;4.330;2022-10-26T07:15:59;16.25;;;7.60;;
23119;SDS011;11729;50.836;4.330;2022-10-26T07:18:25;11.55;;;7.05;;
23119;SDS011;11729;50.836;4.330;2022-10-26T07:20:50;15.70;;;7.47;;
23119;SDS011;11729;50.836;4.330;2022-10-26T07:23:16;10.00;;;6.72;;
23119;SDS011;11729;50.836;4.330;2022-10-26T07:25:42;7.70;;;6.68;;
23119;SDS011;11729;50.836;4.330;2022-10-26T07:28:08;10.68;;;6.82;;
23119;SDS011;11729;50.836;4.330;2022-10-26T07:30:35;11.93;;;6.70;;
23119;SDS011;11729;50.836;4.330;2022-10-26T07:33:12;11.02;;;7.05;;
23119;SDS011;11729;50.836;4.330;2022-10-26T07:35:38;13.43;;;7.05;;
23119;SDS011;11729;50.836;4.330;2022-10-26T07:38:04;9.63;;;6.78;;
23119;SDS011;11729;50.836;4.330;2022-10-26T07:40:30;15.38;;;6.85;;
23119;SDS011;11729;50.836;4.330;2022-10-26T07:42:57;12.15;;;7.38;;
23119;SDS011;11729;50.836;4.330;2022-10-26T07:45:24;14.97;;;6.73;;
23119;SDS011;11729;50.836;4.330;2022-10-26T07:47:51;10.07;;;6.68;;
23119;SDS011;11729;50.836;4.330;2022-10-26T07:50:16;13.23;;;6.55;;
23119;SDS011;11729;50.836;4.330;2022-10-26T07:52:42;15.48;;;6.00;;
23119;SDS011;11729;50.836;4.330;2022-10-26T07:55:09;14.93;;;6.50;;
23119;SDS011;11729;50.836;4.330;2022-10-26T07:57:35;11.73;;;5.90;;
23119;SDS011;11729;50.836;4.330;2022-10-26T08:00:00;12.85;;;5.93;;
23119;SDS011;11729;50.836;4.330;2022-10-26T08:02:27;10.10;;;6.05;;
23119;SDS011;11729;50.836;4.330;2022-10-26T08:04:53;9.25;;;5.80;;
23119;SDS011;11729;50.836;4.330;2022-10-26T08:07:19;15.85;;;5.88;;
23119;SDS011;11729;50.836;4.330;2022-10-26T08:09:45;14.38;;;7.82;;
23119;SDS011;11729;50.836;4.330;2022-10-26T08:12:11;17.83;;;7.55;;
23119;SDS011;11729;50.836;4.330;2022-10-26T08:14:40;11.25;;;5.80;;
23119;SDS011;11729;50.836;4.330;2022-10-26T08:17:06;11.30;;;5.60;;
23119;SDS011;11729;50.836;4.330;2022-10-26T08:19:32;13.02;;;5.57;;
23119;SDS011;11729;50.836;4.330;2022-10-26T08:21:57;12.07;;;5.80;;
23119;SDS011;11729;50.836;4.330;2022-10-26T08:24:23;10.60;;;5.50;;
23119;SDS011;11729;50.836;4.330;2022-10-26T08:26:48;10.70;;;5.35;;
23119;SDS011;11729;50.836;4.330;2022-10-26T08:29:14;12.43;;;5.80;;
23119;SDS011;11729;50.836;4.330;2022-10-26T08:31:40;12.38;;;5.53;;
23119;SDS011;11729;50.836;4.330;2022-10-26T08:34:05;9.90;;;5.80;;
23119;SDS011;11729;50.836;4.330;2022-10-26T08:36:32;10.98;;;5.53;;
23119;SDS011;11729;50.836;4.330;2022-10-26T08:38:57;10.95;;;5.57;;
23119;SDS011;11729;50.836;4.330;2022-10-26T08:41:31;8.13;;;5.63;;
23119;SDS011;11729;50.836;4.330;2022-10-26T08:44:22;10.27;;;6.13;;
23119;SDS011;11729;50.836;4.330;2022-10-26T08:46:49;11.57;;;5.95;;
23119;SDS011;11729;50.836;4.330;2022-10-26T08:49:21;11.48;;;5.75;;
23119;SDS011;11729;50.836;4.330;2022-10-26T08:51:51;15.05;;;6.13;;
23119;SDS011;11729;50.836;4.330;2022-10-26T09:00:00;10.57;;;5.72;;
23119;SDS011;11729;50.836;4.330;2022-10-26T09:02:34;11.50;;;5.80;;
23119;SDS011;11729;50.836;4.330;2022-10-26T09:05:00;9.32;;;5.45;;
23119;SDS011;11729;50.836;4.330;2022-10-26T09:21:07;10.90;;;5.82;;
23119;SDS011;11729;50.836;4.330;2022-10-26T09:29:17;12.85;;;5.75;;
23119;SDS011;11729;50.836;4.330;2022-10-26T09:31:46;10.57;;;5.80;;
23119;SDS011;11729;50.836;4.330;2022-10-26T09:34:29;13.18;;;5.70;;
23119;SDS011;11729;50.836;4.330;2022-10-26T09:37:23;9.88;;;5.80;;
23119;SDS011;11729;50.836;4.330;2022-10-26T09:42:48;9.18;;;5.70;;
23119;SDS011;11729;50.836;4.330;2022-10-26T09:47:52;6.68;;;5.40;;
23119;SDS011;11729;50.836;4.330;2022-10-26T09:50:33;10.93;;;5.30;;
23119;SDS011;11729;50.836;4.330;2022-10-26T09:53:01;11.00;;;5.55;;
23119;SDS011;11729;50.836;4.330;2022-10-26T09:55:28;13.07;;;6.18;;
23119;SDS011;11729;50.836;4.330;2022-10-26T09:58:02;8.27;;;5.60;;
23119;SDS011;11729;50.836;4.330;2022-10-26T10:00:30;6.78;;;4.90;;
23119;SDS011;11729;50.836;4.330;2022-10-26T10:10:38;13.55;;;5.72;;
23119;SDS011;11729;50.836;4.330;2022-10-26T10:13:29;8.27;;;5.20;;
23119;SDS011;11729;50.836;4.330;2022-10-26T10:16:31;6.15;;;5.13;;
23119;SDS011;11729;50.836;4.330;2022-10-26T10:18:53;8.73;;;5.15;;
23119;SDS011;11729;50.836;4.330;2022-10-26T10:21:21;9.00;;;5.70;;
23119;SDS011;11729;50.836;4.330;2022-10-26T10:24:00;11.68;;;5.18;;
23119;SDS011;11729;50.836;4.330;2022-10-26T10:26:26;7.72;;;5.10;;
23119;SDS011;11729;50.836;4.330;2022-10-26T10:28:56;7.53;;;4.80;;
23119;SDS011;11729;50.836;4.330;2022-10-26T10:31:27;11.57;;;5.00;;
23119;SDS011;11729;50.836;4.330;2022-10-26T10:33:55;6.13;;;4.53;;
23119;SDS011;11729;50.836;4.330;2022-10-26T10:36:21;9.93;;;4.70;;
23119;SDS011;11729;50.836;4.330;2022-10-26T10:38:49;8.57;;;4.70;;
23119;SDS011;11729;50.836;4.330;2022-10-26T10:46:38;14.50;;;5.22;;
23119;SDS011;11729;50.836;4.330;2022-10-26T10:49:05;8.10;;;4.43;;
23119;SDS011;11729;50.836;4.330;2022-10-26T10:51:40;10.65;;;4.70;;
23119;SDS011;11729;50.836;4.330;2022-10-26T10:56:46;8.77;;;4.90;;
23119;SDS011;11729;50.836;4.330;2022-10-26T11:01:58;9.52;;;4.50;;
23119;SDS011;11729;50.836;4.330;2022-10-26T11:06:52;8.68;;;4.88;;
23119;SDS011;11729;50.836;4.330;2022-10-26T11:09:24;7.45;;;4.80;;
23119;SDS011;11729;50.836;4.330;2022-10-26T11:12:03;8.02;;;5.47;;
23119;SDS011;11729;50.836;4.330;2022-10-26T11:14:37;7.63;;;4.80;;
23119;SDS011;11729;50.836;4.330;2022-10-26T11:17:13;6.22;;;5.13;;
23119;SDS011;11729;50.836;4.330;2022-10-26T11:19:52;11.48;;;5.25;;
23119;SDS011;11729;50.836;4.330;2022-10-26T11:22:33;12.55;;;4.85;;
23119;SDS011;11729;50.836;4.330;2022-10-26T11:25:24;8.23;;;4.95;;
23119;SDS011;11729;50.836;4.330;2022-10-26T11:27:58;8.25;;;4.82;;
23119;SDS011;11729;50.836;4.330;2022-10-26T11:30:34;17.00;;;9.57;;
23119;SDS011;11729;50.836;4.330;2022-10-26T11:33:13;7.30;;;5.55;;
23119;SDS011;11729;50.836;4.330;2022-10-26T11:35:45;13.30;;;5.05;;
23119;SDS011;11729;50.836;4.330;2022-10-26T11:41:17;6.95;;;4.43;;
23119;SDS011;11729;50.836;4.330;2022-10-26T11:46:54;9.75;;;4.80;;
23119;SDS011;11729;50.836;4.330;2022-10-26T11:49:38;7.57;;;4.93;;
23119;SDS011;11729;50.836;4.330;2022-10-26T11:52:13;14.48;;;5.10;;
23119;SDS011;11729;50.836;4.330;2022-10-26T11:54:48;9.18;;;5.18;;
23119;SDS011;11729;50.836;4.330;2022-10-26T11:57:22;5.75;;;4.80;;
23119;SDS011;11729;50.836;4.330;2022-10-26T11:59:53;8.07;;;4.32;;
23119;SDS011;11729;50.836;4.330;2022-10-26T12:02:23;6.82;;;4.55;;
23119;SDS011;11729;50.836;4.330;2022-10-26T12:04:57;7.85;;;4.50;;
23119;SDS011;11729;50.836;4.330;2022-10-26T12:07:30;7.85;;;4.82;;
23119;SDS011;11729;50.836;4.330;2022-10-26T12:10:03;9.50;;;5.30;;
23119;SDS011;11729;50.836;4.330;2022-10-26T12:21:11;11.25;;;5.30;;
23119;SDS011;11729;50.836;4.330;2022-10-26T12:23:55;8.10;;;4.70;;
23119;SDS011;11729;50.836;4.330;2022-10-26T12:33:57;8.43;;;4.50;;
23119;SDS011;11729;50.836;4.330;2022-10-26T12:39:31;5.60;;;4.35;;
23119;SDS011;11729;50.836;4.330;2022-10-26T12:44:34;12.07;;;4.53;;
23119;SDS011;11729;50.836;4.330;2022-10-26T12:52:43;8.90;;;4.50;;
23119;SDS011;11729;50.836;4.330;2022-10-26T13:00:28;12.35;;;4.68;;
23119;SDS011;11729;50.836;4.330;2022-10-26T13:03:55;9.68;;;4.28;;
23119;SDS011;11729;50.836;4.330;2022-10-26T13:09:08;8.32;;;4.43;;
23119;SDS011;11729;50.836;4.330;2022-10-26T13:11:47;6.60;;;4.38;;
23119;SDS011;11729;50.836;4.330;2022-10-26T13:14:23;9.10;;;4.53;;
23119;SDS011;11729;50.836;4.330;2022-10-26T13:16:53;10.60;;;4.27;;
23119;SDS011;11729;50.836;4.330;2022-10-26T13:22:18;9.15;;;5.82;;
23119;SDS011;11729;50.836;4.330;2022-10-26T13:24:48;8.43;;;5.13;;
23119;SDS011;11729;50.836;4.330;2022-10-26T13:30:16;8.93;;;4.82;;
23119;SDS011;11729;50.836;4.330;2022-10-26T13:32:41;9.38;;;4.75;;
23119;SDS011;11729;50.836;4.330;2022-10-26T13:35:17;11.82;;;4.80;;
23119;SDS011;11729;50.836;4.330;2022-10-26T13:37:46;8.23;;;4.45;;
23119;SDS011;11729;50.836;4.330;2022-10-26T13:40:18;6.80;;;4.57;;
23119;SDS011;11729;50.836;4.330;2022-10-26T13:42:47;9.50;;;4.40;;
23119;SDS011;11729;50.836;4.330;2022-10-26T13:45:27;12.38;;;4.60;;
23119;SDS011;11729;50.836;4.330;2022-10-26T13:53:17;9.70;;;4.65;;
23119;SDS011;11729;50.836;4.330;2022-10-26T13:55:51;9.18;;;4.70;;
23119;SDS011;11729;50.836;4.330;2022-10-26T13:58:24;11.30;;;6.65;;
23119;SDS011;11729;50.836;4.330;2022-10-26T14:00:59;13.15;;;6.68;;
23119;SDS011;11729;50.836;4.330;2022-10-26T14:03:27;16.38;;;5.35;;
23119;SDS011;11729;50.836;4.330;2022-10-26T14:05:53;8.02;;;4.68;;
23119;SDS011;11729;50.836;4.330;2022-10-26T14:08:20;7.15;;;4.82;;
23119;SDS011;11729;50.836;4.330;2022-10-26T14:10:47;6.65;;;4.35;;
23119;SDS011;11729;50.836;4.330;2022-10-26T14:13:22;6.78;;;4.30;;
23119;SDS011;11729;50.836;4.330;2022-10-26T14:15:50;9.23;;;4.72;;
23119;SDS011;11729;50.836;4.330;2022-10-26T14:18:18;10.85;;;4.93;;
23119;SDS011;11729;50.836;4.330;2022-10-26T14:20:57;10.60;;;4.63;;
23119;SDS011;11729;50.836;4.330;2022-10-26T14:23:32;9.18;;;4.78;;
23119;SDS011;11729;50.836;4.330;2022-10-26T14:25:59;8.00;;;4.65;;
23119;SDS011;11729;50.836;4.330;2022-10-26T14:28:26;9.95;;;4.47;;
23119;SDS011;11729;50.836;4.330;2022-10-26T14:30:53;7.70;;;5.00;;
23119;SDS011;11729;50.836;4.330;2022-10-26T14:33:34;13.63;;;5.22;;
23119;SDS011;11729;50.836;4.330;2022-10-26T14:35:59;11.90;;;5.00;;
23119;SDS011;11729;50.836;4.330;2022-10-26T14:38:25;11.15;;;4.93;;
23119;SDS011;11729;50.836;4.330;2022-10-26T14:40:55;11.70;;;5.38;;
23119;SDS011;11729;50.836;4.330;2022-10-26T14:43:22;13.05;;;5.18;;
23119;SDS011;11729;50.836;4.330;2022-10-26T14:45:50;13.15;;;5.30;;
23119;SDS011;11729;50.836;4.330;2022-10-26T14:48:24;7.15;;;4.90;;
23119;SDS011;11729;50.836;4.330;2022-10-26T14:51:01;8.30;;;5.03;;
23119;SDS011;11729;50.836;4.330;2022-10-26T14:53:33;12.15;;;4.95;;
23119;SDS011;11729;50.836;4.330;2022-10-26T14:56:02;14.45;;;6.43;;
23119;SDS011;11729;50.836;4.330;2022-10-26T14:58:29;7.43;;;5.47;;
23119;SDS011;11729;50.836;4.330;2022-10-26T15:03:40;10.60;;;5.30;;
23119;SDS011;11729;50.836;4.330;2022-10-26T15:08:55;9.00;;;4.85;;
23119;SDS011;11729;50.836;4.330;2022-10-26T15:11:22;10.40;;;5.00;;
23119;SDS011;11729;50.836;4.330;2022-10-26T15:13:52;11.75;;;5.20;;
23119;SDS011;11729;50.836;4.330;2022-10-26T15:18:53;9.77;;;4.82;;
23119;SDS011;11729;50.836;4.330;2022-10-26T15:23:49;8.55;;;4.80;;
23119;SDS011;11729;50.836;4.330;2022-10-26T15:26:15;6.70;;;4.53;;
23119;SDS011;11729;50.836;4.330;2022-10-26T15:28:42;10.02;;;4.75;;
23119;SDS011;11729;50.836;4.330;2022-10-26T15:33:36;9.50;;;5.10;;
23119;SDS011;11729;50.836;4.330;2022-10-26T15:38:39;8.45;;;4.90;;
23119;SDS011;11729;50.836;4.330;2022-10-26T15:41:08;9.48;;;5.30;;
23119;SDS011;11729;50.836;4.330;2022-10-26T15:43:37;10.65;;;5.78;;
23119;SDS011;11729;50.836;4.330;2022-10-26T15:46:03;14.77;;;6.82;;
23119;SDS011;11729;50.836;4.330;2022-10-26T15:48:30;8.43;;;4.78;;
23119;SDS011;11729;50.836;4.330;2022-10-26T15:50:58;11.75;;;4.82;;
23119;SDS011;11729;50.836;4.330;2022-10-26T15:53:25;9.68;;;4.97;;
23119;SDS011;11729;50.836;4.330;2022-10-26T15:55:55;16.10;;;5.65;;
23119;SDS011;11729;50.836;4.330;2022-10-26T15:58:23;7.35;;;5.38;;
23119;SDS011;11729;50.836;4.330;2022-10-26T16:00:48;11.60;;;5.70;;
23119;SDS011;11729;50.836;4.330;2022-10-26T16:03:21;10.48;;;5.40;;
23119;SDS011;11729;50.836;4.330;2022-10-26T16:05:49;12.98;;;5.28;;
23119;SDS011;11729;50.836;4.330;2022-10-26T16:08:20;8.82;;;5.07;;
23119;SDS011;11729;50.836;4.330;2022-10-26T16:10:46;14.05;;;5.00;;
23119;SDS011;11729;50.836;4.330;2022-10-26T16:13:12;8.35;;;5.13;;
23119;SDS011;11729;50.836;4.330;2022-10-26T16:15:38;11.02;;;5.40;;
23119;SDS011;11729;50.836;4.330;2022-10-26T16:18:04;12.88;;;5.25;;
23119;SDS011;11729;50.836;4.330;2022-10-26T16:20:30;10.43;;;5.13;;
23119;SDS011;11729;50.836;4.330;2022-10-26T16:22:56;9.68;;;5.38;;
23119;SDS011;11729;50.836;4.330;2022-10-26T16:25:25;11.95;;;5.35;;
23119;SDS011;11729;50.836;4.330;2022-10-26T16:27:51;14.93;;;5.75;;
23119;SDS011;11729;50.836;4.330;2022-10-26T16:32:44;11.77;;;5.20;;
23119;SDS011;11729;50.836;4.330;2022-10-26T16:35:10;12.40;;;5.20;;
23119;SDS011;11729;50.836;4.330;2022-10-26T16:37:36;10.02;;;5.30;;
23119;SDS011;11729;50.836;4.330;2022-10-26T16:40:02;8.85;;;5.53;;
23119;SDS011;11729;50.836;4.330;2022-10-26T16:42:30;12.20;;;6.13;;
23119;SDS011;11729;50.836;4.330;2022-10-26T16:44:56;15.40;;;7.30;;
23119;SDS011;11729;50.836;4.330;2022-10-26T16:47:21;13.82;;;6.18;;
23119;SDS011;11729;50.836;4.330;2022-10-26T16:49:47;17.58;;;7.90;;
23119;SDS011;11729;50.836;4.330;2022-10-26T16:52:13;18.08;;;8.05;;
23119;SDS011;11729;50.836;4.330;2022-10-26T16:54:39;8.70;;;6.38;;
23119;SDS011;11729;50.836;4.330;2022-10-26T16:57:05;10.82;;;5.63;;
23119;SDS011;11729;50.836;4.330;2022-10-26T16:59:30;10.23;;;5.47;;
23119;SDS011;11729;50.836;4.330;2022-10-26T17:01:56;12.52;;;5.82;;
23119;SDS011;11729;50.836;4.330;2022-10-26T17:04:21;11.13;;;5.22;;
23119;SDS011;11729;50.836;4.330;2022-10-26T17:06:47;11.27;;;5.53;;
23119;SDS011;11729;50.836;4.330;2022-10-26T17:09:13;8.75;;;5.25;;
23119;SDS011;11729;50.836;4.330;2022-10-26T17:11:39;10.57;;;5.63;;
23119;SDS011;11729;50.836;4.330;2022-10-26T17:14:05;9.38;;;6.00;;
23119;SDS011;11729;50.836;4.330;2022-10-26T17:16:31;10.80;;;5.50;;
23119;SDS011;11729;50.836;4.330;2022-10-26T17:18:56;10.30;;;5.40;;
23119;SDS011;11729;50.836;4.330;2022-10-26T17:21:29;7.15;;;5.28;;
23119;SDS011;11729;50.836;4.330;2022-10-26T17:23:58;9.98;;;5.50;;
23119;SDS011;11729;50.836;4.330;2022-10-26T17:26:24;14.05;;;6.07;;
23119;SDS011;11729;50.836;4.330;2022-10-26T17:28:50;14.32;;;6.60;;
23119;SDS011;11729;50.836;4.330;2022-10-26T17:31:20;14.52;;;6.18;;
23119;SDS011;11729;50.836;4.330;2022-10-26T17:33:47;13.75;;;6.35;;
23119;SDS011;11729;50.836;4.330;2022-10-26T17:36:19;14.48;;;6.47;;
23119;SDS011;11729;50.836;4.330;2022-10-26T17:38:47;11.65;;;6.20;;
23119;SDS011;11729;50.836;4.330;2022-10-26T17:41:15;8.73;;;6.60;;